createdAt,value
2019-03-21T00:00:21.966Z,1.3
2019-03-21T00:05:22.078Z,1.3
2019-03-21T00:10:21.371Z,1.3
2019-03-21T00:15:21.640Z,1.3
2019-03-21T00:20:22.173Z,1.3
2019-03-21T00:25:21.508Z,1.3
2019-03-21T00:30:21.994Z,1.3
2019-03-21T00:35:21.503Z,1.3
2019-03-21T00:40:21.933Z,1.3
2019-03-21T00:45:22.167Z,0.9
2019-03-21T00:50:21.647Z,0.9
2019-03-21T00:55:21.938Z,1.3
2019-03-21T01:00:21.409Z,1.3
2019-03-21T01:05:22.161Z,0.9
2019-03-21T01:10:22.112Z,0.9
2019-03-21T01:15:21.708Z,0.9
2019-03-21T01:20:22.042Z,0.9
2019-03-21T01:25:22.214Z,0.4
2019-03-21T01:30:21.519Z,0.4
2019-03-21T01:35:22.077Z,0.4
2019-03-21T01:40:21.511Z,0.4
2019-03-21T01:45:21.854Z,0
2019-03-21T01:50:22.267Z,0
2019-03-21T01:55:21.637Z,0
2019-03-21T02:00:21.979Z,0
2019-03-21T02:05:22.155Z,0.4
2019-03-21T02:10:22.232Z,0.4
2019-03-21T02:15:21.519Z,0.4
2019-03-21T02:20:21.801Z,0.4
2019-03-21T02:25:22.272Z,0.4
2019-03-21T02:30:22.124Z,0.4
2019-03-21T02:35:21.740Z,0.4
2019-03-21T02:40:22.106Z,0.4
2019-03-21T02:45:22.268Z,0.9
2019-03-21T02:50:22.271Z,0.9
2019-03-21T02:55:21.476Z,0.9
2019-03-21T03:00:21.472Z,0.9
2019-03-21T03:05:21.783Z,0.9
2019-03-21T03:10:22.348Z,0.9
2019-03-21T03:15:22.928Z,0.9
2019-03-21T03:20:22.176Z,0.9
2019-03-21T03:25:22.378Z,0.9
2019-03-21T03:30:21.559Z,0.9
2019-03-21T03:35:21.901Z,0.9
2019-03-21T03:40:21.616Z,0.9
2019-03-21T03:45:36.158Z,0.9
2019-03-21T03:50:22.044Z,0.9
2019-03-21T03:55:22.195Z,0.4
2019-03-21T04:00:21.562Z,0.4
2019-03-21T04:05:21.983Z,0.4
2019-03-21T04:10:22.175Z,0.4
2019-03-21T04:15:22.364Z,0.4
2019-03-21T04:20:21.695Z,0.4
2019-03-21T04:25:21.992Z,0.4
2019-03-21T04:30:22.345Z,0.4
2019-03-21T04:35:21.621Z,0.9
2019-03-21T04:40:22.047Z,0.9
2019-03-21T04:45:21.576Z,1.8
2019-03-21T04:50:21.931Z,1.8
2019-03-21T04:55:22.119Z,2.1
2019-03-21T05:00:21.533Z,2.1
2019-03-21T05:05:22.262Z,2.6
2019-03-21T05:10:22.490Z,2.6
2019-03-21T05:15:21.883Z,1.8
2019-03-21T05:20:22.295Z,1.8
2019-03-21T05:25:22.535Z,1.8
2019-03-21T05:30:21.790Z,1.8
2019-03-21T05:35:22.460Z,2.1
2019-03-21T05:40:22.029Z,2.1
2019-03-21T05:45:22.339Z,2.2
2019-03-21T05:50:21.780Z,2.2
2019-03-21T05:55:22.001Z,2.7
2019-03-21T06:00:22.303Z,2.7
2019-03-21T06:05:21.907Z,3.1
2019-03-21T06:10:22.072Z,3.1
2019-03-21T06:15:22.221Z,2.2
2019-03-21T06:20:22.557Z,2.2
2019-03-21T06:25:21.941Z,1.9
2019-03-21T06:30:21.883Z,1.9
2019-03-21T06:35:22.548Z,2.2
2019-03-21T06:40:22.443Z,2.2
2019-03-21T06:45:22.014Z,2.5
2019-03-21T06:50:21.901Z,2.5
2019-03-21T06:55:22.243Z,2.8
2019-03-21T07:00:24.921Z,2.8
2019-03-21T07:05:22.483Z,2.8
2019-03-21T07:10:21.878Z,2.8
2019-03-21T07:15:22.170Z,2.8
2019-03-21T07:20:22.159Z,2.8
2019-03-21T07:25:22.364Z,2.8
2019-03-21T07:30:22.624Z,2.8
2019-03-21T07:35:21.966Z,2.2
2019-03-21T07:40:22.422Z,2.2
2019-03-21T07:45:21.743Z,2.2
2019-03-21T07:50:22.234Z,2.2
2019-03-21T07:55:21.750Z,2.9
2019-03-21T08:00:22.041Z,2.9
2019-03-21T08:05:22.621Z,3.1
2019-03-21T08:10:22.286Z,3.1
2019-03-21T08:15:22.143Z,2.7
2019-03-21T08:20:22.469Z,2.7
2019-03-21T08:25:21.911Z,3.1
2019-03-21T08:30:22.306Z,3.1
2019-03-21T08:35:22.603Z,1.9
2019-03-21T08:40:22.017Z,1.9
2019-03-21T08:45:22.480Z,2.7
2019-03-21T08:50:21.927Z,2.7
2019-03-21T08:55:22.221Z,2.9
2019-03-21T09:00:33.588Z,2.9
2019-03-21T09:05:22.052Z,2.7
2019-03-21T09:10:21.972Z,2.7
2019-03-21T09:15:22.290Z,3.1
2019-03-21T09:20:22.545Z,3.1
2019-03-21T09:25:21.998Z,2.7
2019-03-21T09:30:22.142Z,2.7
2019-03-21T09:35:21.921Z,2.2
2019-03-21T09:40:22.682Z,2.2
2019-03-21T09:45:22.873Z,1.8
2019-03-21T09:50:22.387Z,1.8
2019-03-21T09:55:22.729Z,2.2
2019-03-21T10:00:22.000Z,2.2
2019-03-21T10:05:22.378Z,1.8
2019-03-21T10:10:22.481Z,1.8
2019-03-21T10:15:22.736Z,2.3
2019-03-21T10:20:22.022Z,2.3
2019-03-21T10:25:22.308Z,3
2019-03-21T10:30:22.731Z,3
2019-03-21T10:35:22.108Z,2.2
2019-03-21T10:40:22.562Z,2.2
2019-03-21T10:45:22.242Z,2.6
2019-03-21T10:50:22.679Z,2.6
2019-03-21T10:55:22.817Z,2.2
2019-03-21T11:00:22.086Z,2.2
2019-03-21T11:05:23.397Z,2.2
2019-03-21T11:10:22.344Z,2.2
2019-03-21T11:15:22.229Z,2.2
2019-03-21T11:20:22.609Z,2.2
2019-03-21T11:25:22.853Z,2.2
2019-03-21T11:30:22.131Z,2.2
2019-03-21T11:35:22.385Z,2.2
2019-03-21T11:40:22.829Z,2.2
2019-03-21T11:45:22.012Z,2.2
2019-03-21T11:50:22.273Z,2.2
2019-03-21T11:55:22.603Z,2.2
2019-03-21T12:00:22.851Z,2.2
2019-03-21T12:05:22.268Z,3.1
2019-03-21T12:10:22.387Z,3.1
2019-03-21T12:15:22.527Z,2.7
2019-03-21T12:20:23.033Z,2.7
2019-03-21T12:25:22.480Z,3.1
2019-03-21T12:30:23.004Z,3.1
2019-03-21T12:35:22.580Z,2.2
2019-03-21T12:40:22.015Z,2.2
2019-03-21T12:45:22.231Z,2.2
2019-03-21T12:50:22.221Z,2.2
2019-03-21T12:55:22.701Z,2.2
2019-03-21T13:00:22.377Z,2.2
2019-03-21T13:05:22.371Z,3.4
2019-03-21T13:10:22.967Z,3.4
2019-03-21T13:15:29.721Z,2.6
2019-03-21T13:20:22.583Z,2.6
2019-03-21T13:25:22.300Z,2.7
2019-03-21T13:30:22.269Z,2.7
2019-03-21T13:35:32.089Z,2.2
2019-03-21T13:40:23.074Z,2.2
2019-03-21T13:45:22.430Z,2.2
2019-03-21T13:50:22.887Z,2.2
2019-03-21T13:55:22.578Z,2
2019-03-21T14:00:22.918Z,2
2019-03-21T14:05:22.683Z,1.9
2019-03-21T14:10:22.475Z,1.9
2019-03-21T14:15:22.541Z,2.7
2019-03-21T14:20:23.115Z,2.7
2019-03-21T14:25:22.204Z,2.4
2019-03-21T14:30:22.556Z,2.4
2019-03-21T14:35:22.416Z,2.3
2019-03-21T14:40:22.568Z,2.3
2019-03-21T14:45:22.952Z,2.2
2019-03-21T14:50:22.334Z,2.2
2019-03-21T14:55:22.790Z,1.8
2019-03-21T15:00:22.483Z,1.8
2019-03-21T15:05:23.143Z,1.8
2019-03-21T15:10:22.765Z,1.8
2019-03-21T15:15:23.183Z,1.1
2019-03-21T15:20:22.473Z,1.1
2019-03-21T15:25:22.949Z,1.3
2019-03-21T15:30:22.357Z,1.3
2019-03-21T15:35:22.770Z,1.3
2019-03-21T15:40:22.617Z,1.3
2019-03-21T15:45:23.869Z,1.7
2019-03-21T15:50:22.751Z,1.7
2019-03-21T15:55:22.953Z,1.3
2019-03-21T16:00:23.240Z,1.3
2019-03-21T16:05:22.768Z,1
2019-03-21T16:10:22.554Z,1
2019-03-21T16:15:23.123Z,0.9
2019-03-21T16:20:22.616Z,0.9
2019-03-21T16:25:23.066Z,1.3
2019-03-21T16:30:22.991Z,1.3
2019-03-21T16:35:22.466Z,1
2019-03-21T16:40:23.140Z,1
2019-03-21T16:45:22.587Z,0.9
2019-03-21T16:50:22.905Z,0.9
2019-03-21T16:55:23.243Z,0.9
2019-03-21T17:00:22.613Z,0.9
2019-03-21T17:05:23.149Z,1
2019-03-21T17:10:22.726Z,1
2019-03-21T17:15:22.699Z,1.3
2019-03-21T17:20:23.297Z,1.3
2019-03-21T17:25:22.676Z,1.3
2019-03-21T17:30:23.267Z,1.3
2019-03-21T17:35:22.869Z,1.8
2019-03-21T17:40:23.261Z,1.8
2019-03-21T17:45:22.533Z,1.2
2019-03-21T17:50:22.845Z,1.2
2019-03-21T17:55:23.391Z,1.3
2019-03-21T18:00:22.665Z,1.3
2019-03-21T18:05:23.109Z,1
2019-03-21T18:10:22.843Z,1
2019-03-21T18:15:22.506Z,1.3
2019-03-21T18:20:23.051Z,1.3
2019-03-21T18:25:23.420Z,1.3
2019-03-21T18:30:22.770Z,1.3
2019-03-21T18:35:23.122Z,1.3
2019-03-21T18:40:23.368Z,1.3
2019-03-21T18:45:22.705Z,1.8
2019-03-21T18:50:23.137Z,1.8
2019-03-21T18:55:23.168Z,1.8
2019-03-21T19:00:22.518Z,1.8
2019-03-21T19:05:22.980Z,1.3
2019-03-21T19:10:22.489Z,1.3
2019-03-21T19:15:22.663Z,0.9
2019-03-21T19:20:22.960Z,0.9
2019-03-21T19:25:23.312Z,0.4
2019-03-21T19:30:22.504Z,0.4
2019-03-21T19:35:22.941Z,0.4
2019-03-21T19:40:23.350Z,0.4
2019-03-21T19:45:22.609Z,0.4
2019-03-21T19:50:22.967Z,0.4
2019-03-21T19:55:30.825Z,0.4
2019-03-21T20:00:22.564Z,0.4
2019-03-21T20:05:23.320Z,0.4
2019-03-21T20:10:23.510Z,0.4
2019-03-21T20:15:23.183Z,0.4
2019-03-21T20:20:23.536Z,0.4
2019-03-21T20:25:22.795Z,0.1
2019-03-21T20:30:23.162Z,0.1
2019-03-21T20:35:22.923Z,0.4
2019-03-21T20:40:23.370Z,0.4
2019-03-21T20:45:23.612Z,0.4
2019-03-21T20:50:22.969Z,0.4
2019-03-21T20:55:23.288Z,0.4
2019-03-21T21:00:23.488Z,0.4
2019-03-21T21:05:23.351Z,0.4
2019-03-21T21:10:22.849Z,0.4
2019-03-21T21:15:23.451Z,0.4
2019-03-21T21:20:22.955Z,0.4
2019-03-21T21:25:23.216Z,0.2
2019-03-21T21:30:23.495Z,0.2
2019-03-21T21:35:22.749Z,0.9
2019-03-21T21:40:23.214Z,0.9
2019-03-21T21:45:23.465Z,0.7
2019-03-21T21:50:22.819Z,0.7
2019-03-21T21:55:23.149Z,0
2019-03-21T22:00:23.472Z,0
2019-03-21T22:05:23.038Z,0
2019-03-21T22:10:23.499Z,0
2019-03-21T22:15:23.601Z,0
2019-03-21T22:20:22.779Z,0
2019-03-21T22:25:23.269Z,0.4
2019-03-21T22:30:23.524Z,0.4
2019-03-21T22:35:23.841Z,0
2019-03-21T22:40:23.063Z,0
2019-03-21T22:45:23.419Z,0.4
2019-03-21T22:50:22.797Z,0.4
2019-03-21T22:55:23.110Z,0.4
2019-03-21T23:00:23.495Z,0.4
2019-03-21T23:05:23.966Z,0.4
2019-03-21T23:10:22.903Z,0.4
2019-03-21T23:15:23.040Z,0.4
2019-03-21T23:20:22.949Z,0.4
2019-03-21T23:25:22.939Z,0.4
2019-03-21T23:30:23.102Z,0.4
2019-03-21T23:35:23.282Z,0.4
2019-03-21T23:40:23.483Z,0.4
2019-03-21T23:45:23.735Z,0.4
2019-03-21T23:50:23.127Z,0.4
2019-03-21T23:55:23.466Z,0.4
